createdAt,value
2018-12-14T17:10:00.779Z,101291.36
2018-12-14T17:12:30.024Z,101284.97
2018-12-14T17:14:58.349Z,101290.14
2018-12-14T17:17:27.892Z,101287.39
2018-12-14T17:19:56.339Z,101290.52
2018-12-14T17:22:24.999Z,101292.28
2018-12-14T17:24:53.219Z,101296.22
2018-12-14T17:27:21.559Z,101296.59
2018-12-14T17:29:50.880Z,101300.50
2018-12-14T17:32:19.249Z,101298.28
2018-12-14T17:34:47.433Z,101305.03
2018-12-14T17:37:15.864Z,101301.63
2018-12-14T17:39:45.232Z,101303.66
2018-12-14T17:42:13.754Z,101296.73
2018-12-14T17:44:44.279Z,101295.44
2018-12-14T17:47:13.759Z,101305.51
2018-12-14T17:49:42.370Z,101304.47
2018-12-14T17:52:10.864Z,101310.55
2018-12-14T17:54:42.620Z,101308.38
2018-12-14T17:57:11.013Z,101309.73
2018-12-14T17:59:40.484Z,101304.35
2018-12-14T18:02:09.899Z,101309.47
2018-12-14T18:04:38.560Z,101314.28
2018-12-14T18:07:07.324Z,101315.66
2018-12-14T18:09:35.975Z,101322.20
2018-12-14T18:12:06.292Z,101318.85
2018-12-14T18:14:36.857Z,101308.52
2018-12-14T18:17:07.125Z,101305.94
2018-12-14T18:19:36.221Z,101312.96
2018-12-14T18:22:05.725Z,101307.17
2018-12-14T18:24:34.575Z,101313.22
2018-12-14T18:27:03.740Z,101321.55
2018-12-14T18:29:32.339Z,101318.22
2018-12-14T18:32:01.877Z,101325.14
2018-12-14T18:34:32.869Z,101328.48
2018-12-14T18:37:02.480Z,101333.21
2018-12-14T18:39:32.379Z,101330.09
2018-12-14T18:42:06.094Z,101331.73
2018-12-14T18:44:34.686Z,101322.52
2018-12-14T18:47:04.760Z,101332.76
2018-12-14T18:49:34.244Z,101333.48
2018-12-14T18:52:02.745Z,101336.83
2018-12-14T18:54:31.336Z,101337.25
2018-12-14T18:56:59.845Z,101346.25
2018-12-14T18:59:28.680Z,101348.72
2018-12-14T19:01:57.089Z,101351.14
2018-12-14T19:04:25.610Z,101359.67
2018-12-14T19:06:54.520Z,101363.72
2018-12-14T19:09:23.100Z,101364.38
2018-12-14T19:11:51.574Z,101365.77
2018-12-14T19:14:23.819Z,101370.77
2018-12-14T19:16:52.335Z,101376.95
2018-12-14T19:19:20.940Z,101382.60
2018-12-14T19:21:49.370Z,101390.02
2018-12-14T19:24:18.910Z,101386.48
2018-12-14T19:26:48.936Z,101392.11
2018-12-14T19:29:18.640Z,101399.87
2018-12-14T19:31:47.177Z,101401.24
2018-12-14T19:34:16.712Z,101403.18
2018-12-14T19:36:47.325Z,101401.30
2018-12-14T19:39:16.135Z,101396.95
2018-12-14T19:41:46.024Z,101397.02
2018-12-14T19:44:15.603Z,101402.83
2018-12-14T19:46:44.175Z,101404.95
2018-12-14T19:49:15.775Z,101398.42
2018-12-14T19:51:45.451Z,101404.42
2018-12-14T19:54:14.130Z,101413.45
2018-12-14T19:56:42.924Z,101415.59
2018-12-14T19:59:11.470Z,101406.09
2018-12-14T20:01:39.945Z,101410.36
2018-12-14T20:04:09.006Z,101408.01
2018-12-14T20:06:38.531Z,101404.44
2018-12-14T20:09:07.475Z,101410.95
2018-12-14T20:11:37.905Z,101414.19
2018-12-14T20:14:06.449Z,101415.18
2018-12-14T20:16:35.205Z,101420.30
2018-12-14T20:19:03.665Z,101419.14
2018-12-14T20:21:32.244Z,101420.81
2018-12-14T20:24:00.869Z,101420.44
2018-12-14T20:26:29.441Z,101427.75
2018-12-14T20:28:58.111Z,101426.92
2018-12-14T20:31:28.275Z,101425.61
2018-12-14T20:33:56.892Z,101425.08
2018-12-14T20:36:25.489Z,101419.44
2018-12-14T20:38:55.989Z,101420.88
2018-12-14T20:41:24.554Z,101425.85
2018-12-14T20:43:54.719Z,101422.24
2018-12-14T20:46:23.330Z,101419.73
2018-12-14T20:48:51.770Z,101430.91
2018-12-14T20:51:20.224Z,101419.13
2018-12-14T20:53:50.414Z,101420.40
2018-12-14T20:56:20.019Z,101420.55
2018-12-14T20:58:49.059Z,101420.50
2018-12-14T21:01:17.664Z,101410.67
2018-12-14T21:03:46.399Z,101414.95
2018-12-14T21:06:18.086Z,101411.52
2018-12-14T21:08:46.734Z,101410.97
2018-12-14T21:11:15.356Z,101406.87
2018-12-14T21:13:43.820Z,101408.09
2018-12-14T21:16:12.544Z,101407.42
2018-12-14T21:18:41.119Z,101417.24
2018-12-14T21:21:10.564Z,101421.65
2018-12-14T21:23:43.011Z,101409.28
2018-12-14T21:26:11.845Z,101406.42
2018-12-14T21:28:40.264Z,101414.01
2018-12-14T21:31:08.670Z,101409.70
2018-12-14T21:33:37.154Z,101416.40
2018-12-14T21:36:07.865Z,101404.15
2018-12-14T21:38:38.539Z,101401.89
2018-12-14T21:41:07.350Z,101401.09
2018-12-14T21:43:37.644Z,101399.97
2018-12-14T21:46:07.144Z,101398.75
2018-12-14T21:48:36.219Z,101397.46
2018-12-14T21:51:06.839Z,101400.28
2018-12-14T21:53:35.204Z,101394.50
2018-12-14T21:56:03.249Z,101386.44
2018-12-14T21:58:32.072Z,101385.65
2018-12-14T22:01:00.710Z,101385.30
2018-12-14T22:03:28.920Z,101389.45
2018-12-14T22:05:57.051Z,101389.03
2018-12-14T22:08:25.109Z,101390.83
2018-12-14T22:10:53.214Z,101394.03
2018-12-14T22:13:23.299Z,101393.04
2018-12-14T22:15:51.400Z,101391.30
2018-12-14T22:18:19.734Z,101384.70
2018-12-14T22:20:47.720Z,101388.03
2018-12-14T22:23:15.819Z,101389.55
2018-12-14T22:25:46.810Z,101390.25
2018-12-14T22:28:14.885Z,101384.00
2018-12-14T22:30:42.934Z,101387.05
2018-12-14T22:33:11.073Z,101387.81
2018-12-14T22:35:39.078Z,101388.98
2018-12-14T22:38:08.154Z,101396.29
2018-12-14T22:40:36.219Z,101390.81
2018-12-14T22:43:04.238Z,101387.21
2018-12-14T22:45:32.259Z,101390.77
2018-12-14T22:48:00.299Z,101383.67
2018-12-14T22:50:28.244Z,101387.01
2018-12-14T22:52:56.169Z,101386.16
2018-12-14T22:55:24.164Z,101383.48
2018-12-14T22:57:52.119Z,101383.03
2018-12-14T23:00:20.464Z,101384.70
2018-12-14T23:02:48.629Z,101374.35
2018-12-14T23:05:16.614Z,101376.55
2018-12-14T23:07:44.535Z,101381.46
2018-12-14T23:10:12.479Z,101384.80
2018-12-14T23:12:40.459Z,101383.03
2018-12-14T23:15:08.699Z,101385.17
2018-12-14T23:17:36.634Z,101387.01
2018-12-14T23:20:06.039Z,101385.60
2018-12-14T23:22:34.079Z,101387.16
2018-12-14T23:25:02.148Z,101387.36
2018-12-14T23:27:30.060Z,101382.59
2018-12-14T23:29:58.029Z,101381.27
2018-12-14T23:32:26.025Z,101382.44
2018-12-14T23:34:54.039Z,101376.84
2018-12-14T23:37:22.099Z,101377.34
2018-12-14T23:39:50.254Z,101381.91
2018-12-14T23:42:18.299Z,101385.31
2018-12-14T23:44:46.294Z,101386.94
2018-12-14T23:47:14.264Z,101384.80
2018-12-14T23:49:42.234Z,101386.39
2018-12-14T23:52:10.242Z,101375.25
2018-12-14T23:54:38.194Z,101375.95
2018-12-14T23:57:12.117Z,101380.73
2018-12-14T23:59:36.619Z,101379.44
